Time;durP1;ratioP1;P1;durP2;ratioP2;P2;SDS_P1;SDS_P2;PMS_P1;PMS_P2;Temp;Humidity;BMP_temperature;BMP_pressure;BME280_temperature;BME280_humidity;BME280_pressure;Samples;Min_cycle;Max_cycle;Signal;HPM_P1;HPM_P2
2021/07/19 00:00:28;;;;;;;8.48;2.72;;;;;;;;;;5039316;28;20038;-53
2021/07/19 00:02:56;;;;;;;6.40;2.22;;;;;;;;;;5040775;28;20084;-54
2021/07/19 00:05:24;;;;;;;5.13;2.10;;;;;;;;;;5019164;28;20030;-53
2021/07/19 00:07:51;;;;;;;6.97;3.10;;;;;;;;;;5022622;28;20094;-55
2021/07/19 00:10:18;;;;;;;5.35;1.90;;;;;;;;;;5036969;28;20042;-54
2021/07/19 00:12:45;;;;;;;6.57;2.20;;;;;;;;;;5042693;28;20029;-54
2021/07/19 00:15:14;;;;;;;8.50;2.67;;;;;;;;;;5040836;28;20061;-55
2021/07/19 00:17:48;;;;;;;8.05;2.30;;;;;;;;;;5044058;28;20022;-54
2021/07/19 00:20:16;;;;;;;5.28;2.33;;;;;;;;;;5036477;28;20053;-54
2021/07/19 00:22:44;;;;;;;5.18;1.92;;;;;;;;;;5027208;28;20115;-55
2021/07/19 00:25:11;;;;;;;6.18;2.25;;;;;;;;;;5023524;28;20038;-54
2021/07/19 00:27:38;;;;;;;7.20;2.37;;;;;;;;;;5027229;28;20042;-54
2021/07/19 00:30:05;;;;;;;5.72;1.98;;;;;;;;;;5042893;28;20029;-56
2021/07/19 00:32:32;;;;;;;7.55;2.40;;;;;;;;;;5046709;28;20044;-52
2021/07/19 00:34:58;;;;;;;6.90;2.20;;;;;;;;;;5037998;28;20115;-54
2021/07/19 00:37:27;;;;;;;6.35;2.05;;;;;;;;;;5010601;28;20026;-53
2021/07/19 00:39:54;;;;;;;7.50;2.35;;;;;;;;;;5025912;28;20065;-55
2021/07/19 00:42:20;;;;;;;7.30;2.20;;;;;;;;;;5044969;28;20037;-52
2021/07/19 00:44:47;;;;;;;7.85;2.33;;;;;;;;;;5007702;28;20088;-52
2021/07/19 00:47:17;;;;;;;8.23;2.72;;;;;;;;;;5047059;28;20034;-55
2021/07/19 00:49:44;;;;;;;6.50;2.33;;;;;;;;;;5045612;28;20069;-56
2021/07/19 00:52:11;;;;;;;8.15;2.83;;;;;;;;;;5024161;28;20120;-52
2021/07/19 00:54:39;;;;;;;5.63;2.20;;;;;;;;;;5027079;28;20048;-54
2021/07/19 00:57:06;;;;;;;;;;;;;;;;;;5023283;28;20056;-51
2021/07/19 00:59:33;;;;;;;6.93;2.20;;;;;;;;;;5045687;28;19921;-52
2021/07/19 01:02:01;;;;;;;7.53;2.42;;;;;;;;;;5045889;28;20107;-53
2021/07/19 01:04:28;;;;;;;6.97;2.50;;;;;;;;;;5047363;28;20049;-53
2021/07/19 01:06:57;;;;;;;9.48;2.63;;;;;;;;;;5032591;28;20029;-54
2021/07/19 01:09:30;;;;;;;;;;;;;;;;;;5026114;28;20034;-55
2021/07/19 01:11:59;;;;;;;7.97;2.33;;;;;;;;;;5033754;28;20003;-54
2021/07/19 01:14:25;;;;;;;7.05;2.35;;;;;;;;;;5047163;28;20136;-51
2021/07/19 01:16:52;;;;;;;6.85;2.50;;;;;;;;;;5039341;28;20046;-54
2021/07/19 01:19:21;;;;;;;8.88;2.60;;;;;;;;;;5043018;28;20048;-52
2021/07/19 01:21:57;;;;;;;7.45;2.97;;;;;;;;;;5015760;28;20034;-58
2021/07/19 01:24:31;;;;;;;7.85;2.38;;;;;;;;;;5032403;28;20037;-55
2021/07/19 01:27:24;;;;;;;6.80;2.50;;;;;;;;;;5036854;28;20045;-53
2021/07/19 01:29:52;;;;;;;5.40;2.50;;;;;;;;;;4971639;28;20078;-53
2021/07/19 01:32:19;;;;;;;8.38;2.65;;;;;;;;;;5008281;28;20034;-52
2021/07/19 01:34:47;;;;;;;7.28;2.80;;;;;;;;;;5027639;28;20034;-52
2021/07/19 01:37:13;;;;;;;6.78;2.65;;;;;;;;;;5026546;28;20041;-53
2021/07/19 01:39:40;;;;;;;11.98;2.35;;;;;;;;;;5044481;28;20044;-52
2021/07/19 01:42:07;;;;;;;5.40;2.60;;;;;;;;;;5023057;28;20033;-52
2021/07/19 01:44:34;;;;;;;7.80;2.55;;;;;;;;;;5041524;28;20037;-52
2021/07/19 01:47:02;;;;;;;8.38;2.90;;;;;;;;;;5043421;28;20069;-51
2021/07/19 01:49:36;;;;;;;6.55;2.65;;;;;;;;;;5026140;28;20049;-50
2021/07/19 01:52:03;;;;;;;6.95;2.67;;;;;;;;;;5044928;28;20069;-52
2021/07/19 01:54:30;;;;;;;9.25;2.78;;;;;;;;;;5039864;28;20033;-55
2021/07/19 01:56:57;;;;;;;7.75;2.75;;;;;;;;;;5025791;28;20091;-54
2021/07/19 01:59:43;;;;;;;6.95;3.10;;;;;;;;;;5019096;28;20052;-51
2021/07/19 02:02:12;;;;;;;6.55;2.35;;;;;;;;;;5026981;28;20052;-53
2021/07/19 02:04:38;;;;;;;6.47;2.78;;;;;;;;;;5028133;28;20045;-52
2021/07/19 02:07:05;;;;;;;5.80;2.63;;;;;;;;;;5042131;28;20049;-52
2021/07/19 02:09:33;;;;;;;8.35;2.85;;;;;;;;;;5029540;28;20053;-54
2021/07/19 02:12:00;;;;;;;5.90;2.45;;;;;;;;;;5042373;28;20041;-53
2021/07/19 02:14:26;;;;;;;8.10;2.83;;;;;;;;;;5037483;28;20048;-53
2021/07/19 02:16:54;;;;;;;6.15;2.83;;;;;;;;;;5029276;28;20037;-54
2021/07/19 02:19:29;;;;;;;8.10;2.78;;;;;;;;;;5041170;28;20041;-54
2021/07/19 02:21:55;;;;;;;8.43;2.88;;;;;;;;;;5028441;28;20037;-53
2021/07/19 02:24:26;;;;;;;5.75;2.50;;;;;;;;;;5021752;28;20041;-52
2021/07/19 02:26:52;;;;;;;6.75;2.75;;;;;;;;;;5008682;28;20042;-53
2021/07/19 02:29:19;;;;;;;11.60;3.13;;;;;;;;;;5010015;28;20052;-51
2021/07/19 02:31:48;;;;;;;6.00;2.78;;;;;;;;;;5045421;28;20068;-49
2021/07/19 02:34:14;;;;;;;7.78;2.90;;;;;;;;;;5041804;28;20041;-53
2021/07/19 02:36:42;;;;;;;7.20;2.72;;;;;;;;;;5045264;28;20037;-53
2021/07/19 02:39:11;;;;;;;6.57;2.90;;;;;;;;;;5042042;28;20033;-53
2021/07/19 02:41:37;;;;;;;5.80;2.67;;;;;;;;;;5025928;28;20050;-52
2021/07/19 02:44:04;;;;;;;8.23;2.70;;;;;;;;;;5037236;28;20037;-54
2021/07/19 02:46:31;;;;;;;7.40;3.08;;;;;;;;;;5024972;28;20034;-55
2021/07/19 02:49:09;;;;;;;5.88;2.95;;;;;;;;;;5008526;28;20034;-54
2021/07/19 02:51:36;;;;;;;10.38;3.20;;;;;;;;;;5038708;28;20044;-53
2021/07/19 02:54:04;;;;;;;7.28;2.67;;;;;;;;;;5046284;28;20037;-48
2021/07/19 02:56:34;;;;;;;9.52;3.08;;;;;;;;;;5032395;28;20034;-49
2021/07/19 02:59:04;;;;;;;7.68;3.00;;;;;;;;;;5028648;28;20038;-53
2021/07/19 03:01:32;;;;;;;9.95;2.80;;;;;;;;;;5019962;28;20037;-54
2021/07/19 03:04:01;;;;;;;7.85;2.80;;;;;;;;;;5041369;28;20159;-54
2021/07/19 03:06:31;;;;;;;7.68;2.97;;;;;;;;;;5038261;28;20056;-51
2021/07/19 03:09:09;;;;;;;6.07;2.80;;;;;;;;;;5027135;28;20041;-53
2021/07/19 03:11:37;;;;;;;6.95;2.97;;;;;;;;;;5020129;28;20095;-53
2021/07/19 03:14:05;;;;;;;11.93;2.92;;;;;;;;;;5008423;28;20103;-54
2021/07/19 03:16:31;;;;;;;7.50;2.80;;;;;;;;;;5013241;28;20049;-53
2021/07/19 03:19:01;;;;;;;7.93;3.05;;;;;;;;;;5045079;28;20049;-55
2021/07/19 03:21:30;;;;;;;6.38;2.92;;;;;;;;;;5024754;28;20049;-51
2021/07/19 03:23:57;;;;;;;8.10;2.72;;;;;;;;;;5044584;28;20111;-50
2021/07/19 03:26:26;;;;;;;12.65;2.78;;;;;;;;;;5040446;28;20037;-54
2021/07/19 03:29:00;;;;;;;7.63;3.17;;;;;;;;;;5043686;28;20037;-52
2021/07/19 03:31:28;;;;;;;8.82;3.22;;;;;;;;;;5039854;28;20069;-52
2021/07/19 03:33:55;;;;;;;7.05;2.88;;;;;;;;;;5043798;28;20040;-55
2021/07/19 03:36:22;;;;;;;9.02;3.33;;;;;;;;;;5041716;28;20037;-48
2021/07/19 03:38:48;;;;;;;7.45;2.95;;;;;;;;;;5007949;28;20052;-52
2021/07/19 03:41:15;;;;;;;9.48;3.58;;;;;;;;;;5025829;28;20037;-53
2021/07/19 03:43:44;;;;;;;8.38;3.58;;;;;;;;;;5029058;28;20037;-52
2021/07/19 03:46:11;;;;;;;6.47;2.80;;;;;;;;;;5006598;28;20088;-52
2021/07/19 03:48:47;;;;;;;9.23;3.13;;;;;;;;;;5036469;28;20051;-52
2021/07/19 03:51:13;;;;;;;6.90;3.22;;;;;;;;;;5026736;28;20034;-55
2021/07/19 03:53:40;;;;;;;10.60;3.13;;;;;;;;;;5026530;28;20038;-52
2021/07/19 03:56:07;;;;;;;7.70;3.40;;;;;;;;;;5025043;28;20038;-49
2021/07/19 03:58:37;;;;;;;10.40;3.55;;;;;;;;;;5024550;28;20068;-50
2021/07/19 04:01:05;;;;;;;8.60;3.33;;;;;;;;;;5032495;28;20037;-53
2021/07/19 04:03:33;;;;;;;7.85;3.35;;;;;;;;;;5042370;28;20048;-52
2021/07/19 04:06:01;;;;;;;7.22;3.03;;;;;;;;;;5031043;28;20041;-53
2021/07/19 04:08:32;;;;;;;10.25;3.50;;;;;;;;;;5042770;28;20037;-53
2021/07/19 04:11:02;;;;;;;12.20;4.15;;;;;;;;;;5014165;28;20053;-53
2021/07/19 04:13:29;;;;;;;7.00;3.70;;;;;;;;;;5013342;28;20041;-50
2021/07/19 04:15:56;;;;;;;8.98;3.67;;;;;;;;;;5045937;28;20037;-52
2021/07/19 04:18:24;;;;;;;9.55;3.72;;;;;;;;;;5040375;28;20038;-54
2021/07/19 04:20:51;;;;;;;11.65;4.20;;;;;;;;;;5025911;28;20034;-51
2021/07/19 04:23:18;;;;;;;7.55;3.38;;;;;;;;;;5024296;28;20044;-55
2021/07/19 04:25:46;;;;;;;7.47;3.60;;;;;;;;;;5030660;28;20129;-52
2021/07/19 04:28:29;;;;;;;9.20;4.07;;;;;;;;;;5048927;28;20167;-50
2021/07/19 04:30:57;;;;;;;11.63;3.75;;;;;;;;;;5031170;28;20049;-53
2021/07/19 04:33:25;;;;;;;6.85;3.30;;;;;;;;;;5026959;28;20057;-53
2021/07/19 04:35:52;;;;;;;8.13;3.60;;;;;;;;;;5040202;28;20037;-53
2021/07/19 04:38:21;;;;;;;10.85;3.80;;;;;;;;;;5027138;28;20095;-52
2021/07/19 04:40:48;;;;;;;7.38;3.97;;;;;;;;;;5041274;28;20036;-52
2021/07/19 04:43:15;;;;;;;14.45;3.80;;;;;;;;;;5045206;28;20041;-54
2021/07/19 04:45:42;;;;;;;11.88;3.90;;;;;;;;;;5039659;28;20029;-52
2021/07/19 04:48:15;;;;;;;11.68;4.18;;;;;;;;;;5045366;28;20046;-50
2021/07/19 04:50:43;;;;;;;12.63;4.10;;;;;;;;;;5024204;28;20111;-52
2021/07/19 04:53:11;;;;;;;9.68;3.80;;;;;;;;;;5044430;28;20058;-52
2021/07/19 04:55:38;;;;;;;;;;;;;;;;;;5049970;28;20052;-54
2021/07/19 04:58:06;;;;;;;12.38;5.30;;;;;;;;;;5065177;28;19932;-52
2021/07/19 05:00:33;;;;;;;12.80;4.25;;;;;;;;;;5045995;28;20034;-52
2021/07/19 05:03:03;;;;;;;16.70;4.47;;;;;;;;;;5023688;28;20050;-54
2021/07/19 05:05:30;;;;;;;9.98;4.00;;;;;;;;;;5002217;28;20042;-50
2021/07/19 05:08:04;;;;;;;8.68;4.03;;;;;;;;;;5007186;28;20050;-54
2021/07/19 05:10:30;;;;;;;8.75;4.22;;;;;;;;;;5020022;28;20034;-51
2021/07/19 05:12:57;;;;;;;12.68;4.60;;;;;;;;;;5005419;28;20170;-52
2021/07/19 05:15:24;;;;;;;13.75;4.32;;;;;;;;;;5011049;28;20108;-52
2021/07/19 05:17:55;;;;;;;10.07;4.32;;;;;;;;;;5005169;28;20045;-52
2021/07/19 05:20:24;;;;;;;11.25;4.75;;;;;;;;;;5013458;28;20499;-52
2021/07/19 05:22:51;;;;;;;11.07;3.63;;;;;;;;;;5017884;28;20038;-53
2021/07/19 05:25:23;;;;;;;10.20;4.60;;;;;;;;;;5006385;28;20038;-52
2021/07/19 05:28:08;;;;;;;10.63;4.47;;;;;;;;;;5001425;28;20035;-52
2021/07/19 05:30:35;;;;;;;13.20;4.90;;;;;;;;;;5004937;28;20039;-53
2021/07/19 05:33:02;;;;;;;12.57;5.35;;;;;;;;;;5009367;28;20050;-50
2021/07/19 05:35:29;;;;;;;15.27;6.55;;;;;;;;;;5011679;28;20087;-53
2021/07/19 05:38:01;;;;;;;13.00;4.68;;;;;;;;;;5009992;28;20030;-51
2021/07/19 05:40:31;;;;;;;10.30;3.92;;;;;;;;;;5003584;28;20058;-54
2021/07/19 05:42:57;;;;;;;9.38;3.95;;;;;;;;;;5015146;28;20030;-54
2021/07/19 05:45:24;;;;;;;10.10;3.75;;;;;;;;;;5005037;28;20042;-51
2021/07/19 05:47:51;;;;;;;7.55;3.67;;;;;;;;;;4999062;28;20035;-51
2021/07/19 05:50:18;;;;;;;7.68;3.58;;;;;;;;;;5002982;28;20054;-54
2021/07/19 05:52:44;;;;;;;8.13;3.40;;;;;;;;;;5009682;28;20042;-52
2021/07/19 05:55:11;;;;;;;9.70;3.38;;;;;;;;;;5001780;28;20069;-52
2021/07/19 05:57:44;;;;;;;13.02;4.88;;;;;;;;;;5007350;28;20153;-52
2021/07/19 06:00:14;;;;;;;17.40;6.40;;;;;;;;;;5013952;28;20038;-53
2021/07/19 06:02:41;;;;;;;13.88;4.70;;;;;;;;;;5010289;28;20046;-54
2021/07/19 06:05:08;;;;;;;13.95;3.90;;;;;;;;;;5036884;28;20029;-49
2021/07/19 06:07:36;;;;;;;10.30;3.92;;;;;;;;;;5042272;28;20041;-52
2021/07/19 06:10:03;;;;;;;10.77;3.72;;;;;;;;;;5034099;28;20041;-52
2021/07/19 06:12:30;;;;;;;8.18;3.60;;;;;;;;;;5025051;28;20045;-55
2021/07/19 06:14:58;;;;;;;8.10;3.60;;;;;;;;;;5023760;28;20107;-53
2021/07/19 06:17:24;;;;;;;9.77;3.80;;;;;;;;;;5016439;28;20040;-52
2021/07/19 06:19:53;;;;;;;9.90;3.85;;;;;;;;;;5021932;28;20041;-52
2021/07/19 06:22:19;;;;;;;13.18;3.58;;;;;;;;;;5039231;28;20033;-54
2021/07/19 06:24:50;;;;;;;9.82;3.88;;;;;;;;;;5024689;28;20126;-51
2021/07/19 06:27:16;;;;;;;10.13;3.75;;;;;;;;;;5006001;28;20025;-50
2021/07/19 06:29:42;;;;;;;9.13;3.08;;;;;;;;;;5020903;28;20057;-54
2021/07/19 06:32:10;;;;;;;7.32;3.10;;;;;;;;;;5024413;28;20038;-54
2021/07/19 06:34:36;;;;;;;7.70;2.83;;;;;;;;;;5031186;28;20041;-51
2021/07/19 06:37:03;;;;;;;9.48;3.38;;;;;;;;;;5042675;28;20044;-54
2021/07/19 06:39:30;;;;;;;9.20;3.35;;;;;;;;;;5038477;28;20041;-52
2021/07/19 06:41:56;;;;;;;7.28;2.83;;;;;;;;;;5026249;28;20060;-54
2021/07/19 06:44:23;;;;;;;7.15;2.78;;;;;;;;;;5039349;28;20091;-54
2021/07/19 06:46:50;;;;;;;9.45;3.10;;;;;;;;;;5042299;28;20191;-55
2021/07/19 06:49:23;;;;;;;8.65;3.40;;;;;;;;;;5023278;28;20058;-53
2021/07/19 06:51:50;;;;;;;8.70;2.88;;;;;;;;;;5024539;28;20071;-53
2021/07/19 06:54:16;;;;;;;9.05;3.30;;;;;;;;;;5005240;28;20042;-52
2021/07/19 06:56:43;;;;;;;10.13;3.15;;;;;;;;;;5044644;28;20045;-50
2021/07/19 06:59:12;;;;;;;11.55;3.45;;;;;;;;;;5044932;28;20127;-54
2021/07/19 07:01:39;;;;;;;9.38;2.90;;;;;;;;;;5036214;28;20045;-51
2021/07/19 07:04:06;;;;;;;11.63;3.20;;;;;;;;;;5003500;28;20132;-53
2021/07/19 07:06:34;;;;;;;7.38;3.50;;;;;;;;;;5015613;28;20049;-50
2021/07/19 07:09:03;;;;;;;9.07;2.95;;;;;;;;;;5020789;28;20048;-51
2021/07/19 07:11:29;;;;;;;7.90;2.88;;;;;;;;;;5029958;28;20060;-54
2021/07/19 07:13:56;;;;;;;7.85;3.25;;;;;;;;;;5026378;28;20044;-54
2021/07/19 07:16:23;;;;;;;13.48;3.72;;;;;;;;;;5019045;28;20057;-52
2021/07/19 07:18:50;;;;;;;9.93;3.42;;;;;;;;;;5040811;28;20034;-54
2021/07/19 07:21:16;;;;;;;9.38;3.05;;;;;;;;;;5011883;28;20042;-55
2021/07/19 07:23:44;;;;;;;9.18;3.10;;;;;;;;;;5004622;28;20096;-51
2021/07/19 07:26:11;;;;;;;9.02;3.22;;;;;;;;;;5004884;28;20468;-54
2021/07/19 07:28:41;;;;;;;8.88;3.03;;;;;;;;;;5002729;28;20066;-52
2021/07/19 07:31:10;;;;;;;11.10;3.22;;;;;;;;;;5001339;28;20038;-55
2021/07/19 07:33:36;;;;;;;7.90;2.88;;;;;;;;;;5021075;28;20034;-50
2021/07/19 07:36:03;;;;;;;11.75;3.20;;;;;;;;;;5008439;28;20049;-51
2021/07/19 07:38:36;;;;;;;9.73;3.22;;;;;;;;;;5044957;28;20037;-52
2021/07/19 07:41:04;;;;;;;11.60;3.50;;;;;;;;;;5038188;28;20041;-51
2021/07/19 07:43:30;;;;;;;7.85;3.20;;;;;;;;;;5014656;28;20061;-55
2021/07/19 07:45:57;;;;;;;9.02;2.85;;;;;;;;;;5003010;28;20041;-52
2021/07/19 07:48:29;;;;;;;9.43;3.15;;;;;;;;;;5017258;28;20035;-52
2021/07/19 07:50:55;;;;;;;9.25;3.30;;;;;;;;;;5003781;28;20454;-51
2021/07/19 07:53:22;;;;;;;9.82;3.03;;;;;;;;;;5029545;28;20042;-55
2021/07/19 07:55:48;;;;;;;10.48;3.25;;;;;;;;;;5004352;28;20034;-51
2021/07/19 07:58:21;;;;;;;12.93;3.22;;;;;;;;;;4998141;28;20062;-56
2021/07/19 08:00:48;;;;;;;7.88;3.35;;;;;;;;;;5002979;28;20079;-52
2021/07/19 08:03:14;;;;;;;9.98;3.78;;;;;;;;;;5015718;28;20026;-55
2021/07/19 08:05:41;;;;;;;9.55;3.30;;;;;;;;;;5020372;28;20051;-54
2021/07/19 08:08:11;;;;;;;9.05;3.40;;;;;;;;;;5017033;28;20042;-51
2021/07/19 08:10:37;;;;;;;9.45;3.38;;;;;;;;;;5003072;28;20049;-51
2021/07/19 08:13:04;;;;;;;8.68;3.78;;;;;;;;;;4999103;28;20050;-53
2021/07/19 08:15:33;;;;;;;7.70;3.20;;;;;;;;;;5003116;28;20049;-56
2021/07/19 08:18:00;;;;;;;9.98;3.50;;;;;;;;;;4998681;28;20034;-55
2021/07/19 08:20:28;;;;;;;8.88;3.17;;;;;;;;;;5002403;28;20052;-54
2021/07/19 08:22:54;;;;;;;10.15;3.72;;;;;;;;;;4999958;28;20030;-54
2021/07/19 08:25:21;;;;;;;11.15;4.38;;;;;;;;;;5005206;28;20038;-53
2021/07/19 08:27:49;;;;;;;9.88;3.35;;;;;;;;;;5018012;28;20045;-53
2021/07/19 08:30:16;;;;;;;15.98;4.03;;;;;;;;;;5001468;28;20042;-54
2021/07/19 08:32:45;;;;;;;11.32;3.90;;;;;;;;;;5003367;28;20049;-51
2021/07/19 08:35:12;;;;;;;7.78;3.88;;;;;;;;;;4999470;28;20038;-54
2021/07/19 08:37:40;;;;;;;9.57;4.03;;;;;;;;;;5002505;28;20034;-53
2021/07/19 08:40:08;;;;;;;10.65;4.53;;;;;;;;;;5013462;28;20087;-52
2021/07/19 08:42:35;;;;;;;12.20;4.30;;;;;;;;;;4995979;28;20034;-54
2021/07/19 08:45:01;;;;;;;8.40;4.00;;;;;;;;;;5013929;28;20049;-53
2021/07/19 08:47:35;;;;;;;10.93;4.43;;;;;;;;;;4984746;28;20039;-54
2021/07/19 08:50:04;;;;;;;11.38;4.32;;;;;;;;;;4998693;28;20057;-52
2021/07/19 08:52:31;;;;;;;9.65;3.95;;;;;;;;;;5026086;28;20041;-54
2021/07/19 08:54:58;;;;;;;8.57;4.18;;;;;;;;;;5028542;28;20043;-55
2021/07/19 08:57:24;;;;;;;11.27;3.72;;;;;;;;;;5004750;28;20053;-49
2021/07/19 08:59:51;;;;;;;11.00;4.18;;;;;;;;;;5017880;28;20057;-54
2021/07/19 09:02:17;;;;;;;11.15;4.55;;;;;;;;;;5021120;28;20041;-51
2021/07/19 09:04:44;;;;;;;10.77;3.70;;;;;;;;;;4997053;28;20049;-55
2021/07/19 09:07:13;;;;;;;11.85;4.30;;;;;;;;;;5030751;28;20106;-53
2021/07/19 09:09:42;;;;;;;9.75;4.25;;;;;;;;;;5006011;28;20038;-50
2021/07/19 09:12:08;;;;;;;9.38;3.92;;;;;;;;;;5038398;28;20026;-53
2021/07/19 09:14:35;;;;;;;13.02;4.47;;;;;;;;;;5022425;28;20116;-55
2021/07/19 09:17:02;;;;;;;10.00;4.18;;;;;;;;;;4997839;28;20057;-52
2021/07/19 09:19:29;;;;;;;10.20;4.47;;;;;;;;;;4986933;28;20042;-54
2021/07/19 09:21:57;;;;;;;13.45;4.38;;;;;;;;;;4997747;28;20096;-55
2021/07/19 09:24:26;;;;;;;12.52;4.47;;;;;;;;;;5022651;28;20042;-55
2021/07/19 09:26:54;;;;;;;9.23;4.43;;;;;;;;;;5001391;28;20059;-54
2021/07/19 09:29:23;;;;;;;14.15;5.00;;;;;;;;;;5022872;28;20074;-53
2021/07/19 09:31:52;;;;;;;9.52;4.13;;;;;;;;;;4992783;28;20043;-55
2021/07/19 09:34:19;;;;;;;11.55;4.53;;;;;;;;;;5000177;28;20120;-55
2021/07/19 09:36:56;;;;;;;9.40;4.53;;;;;;;;;;5004975;28;20046;-53
2021/07/19 09:39:27;;;;;;;10.95;4.88;;;;;;;;;;4993785;28;20027;-54
2021/07/19 09:42:04;;;;;;;10.13;4.90;;;;;;;;;;4978693;28;20045;-55
2021/07/19 09:44:30;;;;;;;11.25;4.93;;;;;;;;;;4984293;28;20042;-53
2021/07/19 09:46:59;;;;;;;12.77;4.95;;;;;;;;;;4989093;28;20117;-49
2021/07/19 09:49:28;;;;;;;11.88;5.03;;;;;;;;;;5020492;28;20049;-54
2021/07/19 09:51:58;;;;;;;10.75;4.70;;;;;;;;;;4997233;28;20058;-53
2021/07/19 09:54:32;;;;;;;12.68;5.28;;;;;;;;;;4985899;28;20038;-53
2021/07/19 09:57:00;;;;;;;14.48;4.95;;;;;;;;;;4986292;28;20026;-52
2021/07/19 09:59:27;;;;;;;11.10;5.00;;;;;;;;;;5004875;28;20038;-54
2021/07/19 10:01:53;;;;;;;11.10;5.05;;;;;;;;;;5000311;28;20045;-55
2021/07/19 10:04:20;;;;;;;14.27;4.80;;;;;;;;;;5017406;28;20034;-55
2021/07/19 10:06:48;;;;;;;13.65;5.20;;;;;;;;;;5004777;28;20030;-53
2021/07/19 10:09:15;;;;;;;16.50;5.15;;;;;;;;;;5021436;28;20038;-53
2021/07/19 10:11:47;;;;;;;17.90;4.80;;;;;;;;;;5041391;28;20046;-53
2021/07/19 10:14:24;;;;;;;13.98;5.78;;;;;;;;;;5021394;28;20034;-55
2021/07/19 10:16:50;;;;;;;15.18;5.20;;;;;;;;;;5031768;28;20095;-54
2021/07/19 10:19:17;;;;;;;11.65;5.20;;;;;;;;;;5004434;28;20045;-54
2021/07/19 10:21:44;;;;;;;11.45;5.22;;;;;;;;;;5017096;28;20053;-53
2021/07/19 10:24:11;;;;;;;10.50;4.57;;;;;;;;;;5013088;28;20044;-52
2021/07/19 10:26:38;;;;;;;14.02;5.38;;;;;;;;;;5023570;28;20049;-54
2021/07/19 10:29:13;;;;;;;12.65;4.82;;;;;;;;;;5018435;28;20085;-53
2021/07/19 10:31:41;;;;;;;12.10;5.22;;;;;;;;;;5024817;28;20034;-55
2021/07/19 10:34:08;;;;;;;14.65;5.63;;;;;;;;;;5037889;28;20046;-48
2021/07/19 10:36:36;;;;;;;16.15;5.25;;;;;;;;;;5024890;28;20041;-53
2021/07/19 10:39:05;;;;;;;14.05;5.53;;;;;;;;;;5037804;28;20045;-53
2021/07/19 10:41:32;;;;;;;15.07;5.70;;;;;;;;;;5023676;28;20045;-51
2021/07/19 10:43:59;;;;;;;13.05;6.00;;;;;;;;;;5021718;28;20115;-55
2021/07/19 10:46:26;;;;;;;12.82;5.40;;;;;;;;;;5028740;28;20034;-52
2021/07/19 10:49:04;;;;;;;14.43;5.53;;;;;;;;;;5044156;28;20057;-54
2021/07/19 10:51:31;;;;;;;;;;;;;;;;;;5037155;28;20034;-55
2021/07/19 10:53:57;;;;;;;20.75;5.43;;;;;;;;;;5022399;28;19948;-54
2021/07/19 10:56:29;;;;;;;14.18;5.25;;;;;;;;;;5020566;28;20040;-54
2021/07/19 10:58:55;;;;;;;15.32;5.53;;;;;;;;;;5020032;28;20069;-57
2021/07/19 11:01:23;;;;;;;15.80;5.30;;;;;;;;;;5036611;28;20034;-55
2021/07/19 11:03:50;;;;;;;15.90;5.50;;;;;;;;;;5014307;28;20088;-56
2021/07/19 11:06:18;;;;;;;12.93;5.47;;;;;;;;;;4999873;28;20061;-56
2021/07/19 11:08:50;;;;;;;12.30;5.85;;;;;;;;;;5004844;28;20124;-55
2021/07/19 11:11:27;;;;;;;15.52;5.75;;;;;;;;;;5017669;28;20042;-55
2021/07/19 11:13:54;;;;;;;12.70;4.95;;;;;;;;;;5005252;28;20060;-55
2021/07/19 11:16:21;;;;;;;15.02;5.15;;;;;;;;;;4999221;28;20049;-55
2021/07/19 11:18:53;;;;;;;16.20;5.45;;;;;;;;;;5020268;28;20042;-54
2021/07/19 11:21:24;;;;;;;17.15;5.15;;;;;;;;;;5015984;28;20049;-55
2021/07/19 11:23:51;;;;;;;11.50;5.25;;;;;;;;;;5003287;28;20066;-57
2021/07/19 11:26:22;;;;;;;14.50;5.75;;;;;;;;;;5016838;28;20129;-55
2021/07/19 11:28:49;;;;;;;11.10;4.78;;;;;;;;;;5003933;28;20038;-55
2021/07/19 11:31:19;;;;;;;15.02;5.80;;;;;;;;;;5017053;28;20038;-55
2021/07/19 11:33:49;;;;;;;13.27;5.47;;;;;;;;;;5004505;28;20098;-56
2021/07/19 11:36:16;;;;;;;15.55;5.50;;;;;;;;;;5001472;28;20048;-55
2021/07/19 11:38:46;;;;;;;14.10;5.68;;;;;;;;;;5019999;28;20045;-56
2021/07/19 11:41:14;;;;;;;11.82;5.18;;;;;;;;;;5001383;28;20049;-54
2021/07/19 11:43:40;;;;;;;15.53;5.47;;;;;;;;;;5002786;28;20050;-55
2021/07/19 11:46:09;;;;;;;14.75;5.18;;;;;;;;;;5007352;28;20038;-56
2021/07/19 11:48:44;;;;;;;13.82;5.43;;;;;;;;;;5017768;28;20035;-53
2021/07/19 11:51:11;;;;;;;16.15;6.13;;;;;;;;;;5004448;28;20046;-56
2021/07/19 11:53:42;;;;;;;15.07;5.75;;;;;;;;;;5016839;28;20034;-55
2021/07/19 11:56:10;;;;;;;14.90;6.07;;;;;;;;;;5000541;28;20054;-57
2021/07/19 11:58:37;;;;;;;15.68;6.20;;;;;;;;;;5014690;28;20048;-56
2021/07/19 12:01:05;;;;;;;12.52;5.55;;;;;;;;;;5002544;28;20066;-57
2021/07/19 12:03:31;;;;;;;15.48;5.68;;;;;;;;;;4999314;28;20042;-55
2021/07/19 12:05:58;;;;;;;17.02;6.40;;;;;;;;;;5020646;28;20117;-53
2021/07/19 12:08:34;;;;;;;17.40;5.93;;;;;;;;;;5014977;28;20034;-55
2021/07/19 12:11:01;;;;;;;13.07;5.18;;;;;;;;;;5018948;28;20043;-55
2021/07/19 12:13:33;;;;;;;15.95;6.43;;;;;;;;;;4999922;28;20046;-56
2021/07/19 12:15:59;;;;;;;12.80;5.88;;;;;;;;;;5004628;28;20038;-54
2021/07/19 12:18:45;;;;;;;11.98;5.60;;;;;;;;;;5020415;28;20049;-56
2021/07/19 12:21:13;;;;;;;13.82;6.05;;;;;;;;;;5025630;28;20049;-54
2021/07/19 12:23:40;;;;;;;11.70;5.63;;;;;;;;;;5007783;28;20043;-56
2021/07/19 12:26:07;;;;;;;11.32;5.35;;;;;;;;;;5007814;28;20086;-57
2021/07/19 12:28:39;;;;;;;13.20;4.88;;;;;;;;;;5019783;28;20038;-56
2021/07/19 12:31:14;;;;;;;12.40;5.43;;;;;;;;;;5006943;28;20117;-57
2021/07/19 12:33:41;;;;;;;13.02;5.95;;;;;;;;;;5019325;28;20119;-57
2021/07/19 12:36:09;;;;;;;14.88;5.75;;;;;;;;;;5007922;28;20046;-55
2021/07/19 12:38:35;;;;;;;12.50;5.37;;;;;;;;;;5020051;28;20054;-56
2021/07/19 12:41:02;;;;;;;14.18;5.70;;;;;;;;;;5021670;28;20052;-55
2021/07/19 12:43:30;;;;;;;14.13;5.35;;;;;;;;;;5022666;28;20038;-56
2021/07/19 12:45:58;;;;;;;11.15;5.45;;;;;;;;;;5002337;28;20091;-54
2021/07/19 12:48:35;;;;;;;13.80;5.78;;;;;;;;;;5006939;28;20046;-57
2021/07/19 12:51:03;;;;;;;11.83;5.23;;;;;;;;;;5002145;28;20041;-57
2021/07/19 12:53:33;;;;;;;9.07;4.50;;;;;;;;;;5016603;28;20045;-58
2021/07/19 12:56:10;;;;;;;13.10;5.05;;;;;;;;;;5024433;28;20042;-55
2021/07/19 12:58:40;;;;;;;14.00;5.07;;;;;;;;;;5005710;28;20054;-56
2021/07/19 13:01:12;;;;;;;15.00;5.68;;;;;;;;;;5019319;28;20042;-56
2021/07/19 13:03:39;;;;;;;11.60;5.32;;;;;;;;;;5004952;28;20097;-57
2021/07/19 13:06:06;;;;;;;14.43;5.22;;;;;;;;;;5020057;28;20149;-56
2021/07/19 13:08:35;;;;;;;13.82;4.68;;;;;;;;;;5005170;28;20078;-57
2021/07/19 13:11:12;;;;;;;11.02;4.60;;;;;;;;;;4993335;28;20038;-56
2021/07/19 13:13:38;;;;;;;12.23;4.47;;;;;;;;;;4999216;28;20059;-56
2021/07/19 13:16:05;;;;;;;9.88;4.40;;;;;;;;;;5000804;28;20104;-57
2021/07/19 13:18:37;;;;;;;12.18;5.07;;;;;;;;;;5004767;28;20049;-56
2021/07/19 13:21:06;;;;;;;18.17;5.53;;;;;;;;;;5003456;28;20037;-56
2021/07/19 13:23:34;;;;;;;11.85;5.10;;;;;;;;;;5005982;28;20042;-54
2021/07/19 13:26:05;;;;;;;11.20;5.00;;;;;;;;;;5017110;28;20092;-54
2021/07/19 13:28:32;;;;;;;10.23;4.93;;;;;;;;;;5005415;28;20066;-57
2021/07/19 13:31:02;;;;;;;10.27;4.57;;;;;;;;;;5002738;28;20034;-57
2021/07/19 13:33:28;;;;;;;12.43;4.35;;;;;;;;;;4987507;28;20035;-55
2021/07/19 13:35:56;;;;;;;12.82;4.47;;;;;;;;;;5002524;28;20050;-55
2021/07/19 13:38:34;;;;;;;10.77;4.50;;;;;;;;;;5015885;28;20054;-57
2021/07/19 13:41:00;;;;;;;10.60;4.47;;;;;;;;;;5021185;28;20124;-54
2021/07/19 13:43:27;;;;;;;11.32;4.32;;;;;;;;;;5019122;28;20136;-54
2021/07/19 13:45:57;;;;;;;10.70;4.53;;;;;;;;;;5023562;28;20050;-56
2021/07/19 13:48:26;;;;;;;10.68;4.82;;;;;;;;;;5002312;28;20046;-57
2021/07/19 13:50:52;;;;;;;11.93;4.75;;;;;;;;;;5005259;28;20087;-57
2021/07/19 13:53:20;;;;;;;9.57;4.18;;;;;;;;;;5002525;28;20038;-58
2021/07/19 13:55:47;;;;;;;;;;;;;;;;;;5004429;28;20046;-58
2021/07/19 13:58:15;;;;;;;11.88;4.57;;;;;;;;;;5006778;28;20044;-55
2021/07/19 14:00:42;;;;;;;10.18;4.57;;;;;;;;;;5009412;28;20119;-56
2021/07/19 14:03:09;;;;;;;11.27;4.28;;;;;;;;;;4999587;28;20127;-56
2021/07/19 14:05:36;;;;;;;12.95;4.65;;;;;;;;;;5021465;28;20049;-55
2021/07/19 14:08:03;;;;;;;11.63;4.90;;;;;;;;;;5009231;28;20073;-58
2021/07/19 14:10:31;;;;;;;9.85;4.95;;;;;;;;;;5013081;28;20097;-54
2021/07/19 14:12:58;;;;;;;11.15;4.57;;;;;;;;;;5016983;28;20061;-56
2021/07/19 14:15:24;;;;;;;14.20;5.25;;;;;;;;;;5022416;28;20034;-54
2021/07/19 14:17:51;;;;;;;14.07;4.97;;;;;;;;;;5021448;28;20049;-54
2021/07/19 14:20:18;;;;;;;11.93;5.25;;;;;;;;;;5017755;28;20116;-55
2021/07/19 14:22:44;;;;;;;16.05;5.47;;;;;;;;;;5005126;28;20154;-57
2021/07/19 14:25:11;;;;;;;14.23;5.60;;;;;;;;;;5001005;28;20038;-56
2021/07/19 14:27:39;;;;;;;16.13;5.78;;;;;;;;;;5006061;28;20045;-55
2021/07/19 14:30:08;;;;;;;12.65;5.28;;;;;;;;;;5016617;28;20038;-56
2021/07/19 14:32:35;;;;;;;15.68;5.32;;;;;;;;;;5005404;28;20049;-56
2021/07/19 14:35:02;;;;;;;16.67;5.45;;;;;;;;;;5000410;28;20071;-56
2021/07/19 14:37:28;;;;;;;12.07;5.75;;;;;;;;;;5020051;28;20026;-57
2021/07/19 14:39:54;;;;;;;11.25;5.75;;;;;;;;;;5015295;28;20108;-55
2021/07/19 14:42:22;;;;;;;12.63;6.25;;;;;;;;;;5004562;28;20057;-56
2021/07/19 14:44:50;;;;;;;11.93;6.35;;;;;;;;;;4988495;28;20030;-57